Time;durP1;ratioP1;P1;durP2;ratioP2;P2;SDS_P1;SDS_P2;PMS_P1;PMS_P2;Temp;Humidity;BMP_temperature;BMP_pressure;BME280_temperature;BME280_humidity;BME280_pressure;Samples;Min_cycle;Max_cycle;Signal;HPM_P1;HPM_P2
2022/11/09 00:01:19;;;;;;;;;2.00;2.00;;;;;14.95;73.35;100141.91;5076367;27;45304;-63
2022/11/09 00:03:45;;;;;;;;;3.00;2.00;;;;;14.86;73.78;100138.16;5076605;28;45314;-60
2022/11/09 00:06:11;;;;;;;;;4.33;3.67;;;;;14.96;73.52;100156.97;5039117;28;45536;-65
2022/11/09 00:08:38;;;;;;;;;2.67;2.67;;;;;14.97;73.76;100153.31;5077090;28;45335;-63
2022/11/09 00:11:08;;;;;;;;;4.00;4.00;;;;;15.01;73.74;100157.47;5076267;28;45490;-63
2022/11/09 00:13:38;;;;;;;;;2.33;2.00;;;;;14.97;74.47;100170.28;5077040;27;45440;-65
2022/11/09 00:16:05;;;;;;;;;6.67;2.00;;;;;14.92;76.95;100180.47;5077163;28;45427;-64
2022/11/09 00:18:31;;;;;;;;;2.00;2.00;;;;;14.81;78.39;100161.75;5058384;28;45463;-65
2022/11/09 00:20:56;;;;;;;;;3.00;3.00;;;;;14.65;81.17;100172.00;5076130;28;46033;-61
2022/11/09 00:23:22;;;;;;;;;4.00;4.00;;;;;14.55;81.67;100166.50;5078124;28;45469;-64
2022/11/09 00:25:47;;;;;;;;;2.00;2.00;;;;;14.48;82.66;100170.66;5077517;28;46255;-64
2022/11/09 00:28:14;;;;;;;;;4.33;3.00;;;;;14.43;82.69;100172.78;5076930;28;45325;-58
2022/11/09 00:30:40;;;;;;;;;1.33;1.33;;;;;14.39;83.87;100166.84;5077435;28;45339;-60
2022/11/09 00:33:07;;;;;;;;;3.00;3.00;;;;;14.34;82.36;100154.81;5075935;28;45335;-59
2022/11/09 00:35:33;;;;;;;;;5.33;3.00;;;;;14.31;82.12;100125.59;5060811;28;45530;-64
2022/11/09 00:37:58;;;;;;;;;2.67;2.67;;;;;14.31;80.72;100101.53;5067615;28;45323;-63
2022/11/09 00:40:23;;;;;;;;;2.33;2.33;;;;;14.28;80.72;100099.09;5076398;28;45277;-61
2022/11/09 00:42:49;;;;;;;;;2.67;2.00;;;;;14.29;80.46;100116.84;5076626;28;45576;-63
2022/11/09 00:45:15;;;;;;;;;4.00;2.33;;;;;14.27;80.61;100113.47;5076085;28;45304;-64
2022/11/09 00:47:40;;;;;;;;;5.00;1.00;;;;;14.26;80.85;100131.31;5075817;28;45387;-61
2022/11/09 00:50:06;;;;;;;;;2.00;2.00;;;;;14.27;81.26;100134.84;5076473;28;45453;-64
2022/11/09 00:52:31;;;;;;;;;3.00;3.00;;;;;14.26;80.78;100143.84;5069552;27;45611;-65
2022/11/09 00:54:57;;;;;;;;;2.67;2.33;;;;;14.25;80.67;100147.50;5057717;28;45401;-62
2022/11/09 00:57:23;;;;;;;;;3.00;1.67;;;;;14.21;80.95;100149.56;5058598;28;45422;-59
2022/11/09 00:59:48;;;;;;;;;2.67;1.00;;;;;14.21;81.08;100146.91;5040878;28;45417;-63
2022/11/09 01:02:14;;;;;;;;;2.00;2.00;;;;;14.18;80.91;100147.97;5069970;28;45636;-62
2022/11/09 01:04:39;;;;;;;;;1.00;1.00;;;;;14.15;81.01;100148.22;5078719;28;45434;-58
2022/11/09 01:07:06;;;;;;;;;4.33;2.00;;;;;14.16;80.96;100147.22;5077361;28;45339;-60
2022/11/09 01:09:32;;;;;;;;;4.00;2.67;;;;;14.24;80.68;100156.50;5074528;27;45353;-61
2022/11/09 01:11:58;;;;;;;;;0.00;0.00;;;;;14.23;80.28;100152.97;5058394;28;45586;-59
2022/11/09 01:14:23;;;;;;;;;3.00;3.00;;;;;14.17;80.35;100140.06;5076284;28;45430;-60
2022/11/09 01:16:48;;;;;;;;;3.00;1.67;;;;;14.18;80.13;100139.94;5075905;28;45299;-58
2022/11/09 01:19:14;;;;;;;;;7.67;4.00;;;;;14.23;80.34;100154.81;5076004;28;45167;-59
2022/11/09 01:21:40;;;;;;;;;4.00;2.33;;;;;14.20;80.16;100161.25;5076852;28;45726;-59
2022/11/09 01:24:05;;;;;;;;;4.67;3.67;;;;;14.20;79.61;100165.75;5076646;27;46145;-64
2022/11/09 01:26:31;;;;;;;;;3.33;0.00;;;;;14.15;80.44;100169.59;5059739;28;46815;-60
2022/11/09 01:28:56;;;;;;;;;1.67;1.67;;;;;14.14;79.68;100167.91;5079742;28;45314;-59
2022/11/09 01:31:22;;;;;;;;;5.33;2.00;;;;;14.10;80.52;100171.78;5079844;28;45437;-61
2022/11/09 01:33:47;;;;;;;;;2.00;2.00;;;;;14.05;79.76;100181.13;5078904;28;45728;-59
2022/11/09 01:36:18;;;;;;;;;5.00;1.67;;;;;14.03;79.74;100178.56;5071844;28;45395;-61
2022/11/09 01:38:44;;;;;;;;;0.00;0.00;;;;;13.97;79.73;100184.41;5059287;28;45638;-58
2022/11/09 01:41:20;;;;;;;;;3.00;1.00;;;;;13.96;79.61;100190.72;5041269;28;45221;-62
2022/11/09 01:44:03;;;;;;;;;1.67;1.67;;;;;13.94;80.36;100194.50;5063505;28;45662;-58
2022/11/09 01:46:37;;;;;;;;;2.00;2.00;;;;;13.94;80.01;100187.31;5079238;28;45452;-60
2022/11/09 01:49:08;;;;;;;;;2.00;2.00;;;;;13.88;80.11;100190.44;5079036;28;45385;-59
2022/11/09 01:51:41;;;;;;;;;1.00;1.00;;;;;13.86;80.70;100187.03;5078066;27;45544;-62
2022/11/09 01:54:29;;;;;;;;;1.33;1.33;;;;;13.81;80.02;100197.25;5078506;28;46242;-65
2022/11/09 01:56:59;;;;;;;;;2.00;0.00;;;;;13.77;80.72;100195.75;5078893;27;45394;-65
2022/11/09 01:59:29;;;;;;;;;1.00;1.00;;;;;13.75;80.43;100211.06;5079014;28;45366;-58
2022/11/09 02:01:55;;;;;;;;;0.67;0.67;;;;;13.73;79.84;100224.53;5076391;27;47027;-64
2022/11/09 02:04:26;;;;;;;;;4.33;2.00;;;;;13.68;80.31;100217.84;5083545;28;45258;-65
2022/11/09 02:06:55;;;;;;;;;1.00;1.00;;;;;13.64;80.09;100219.88;5045947;28;45474;-64
2022/11/09 02:09:45;;;;;;;;;1.00;1.00;;;;;13.65;80.42;100228.72;5049920;28;45752;-60
2022/11/09 02:12:11;;;;;;;;;1.00;1.00;;;;;13.58;80.28;100223.00;5056662;28;45515;-60
2022/11/09 02:14:37;;;;;;;;;1.00;1.00;;;;;13.58;79.93;100218.50;5069525;27;45468;-62
2022/11/09 02:17:04;;;;;;;;;2.00;0.67;;;;;13.60;79.77;100225.56;5058345;28;45436;-62
2022/11/09 02:19:29;;;;;;;;;3.67;2.00;;;;;13.57;79.53;100224.84;5074305;27;45521;-61
2022/11/09 02:21:55;;;;;;;;;0.00;0.00;;;;;13.55;79.51;100224.09;5071207;27;45647;-59
2022/11/09 02:24:20;;;;;;;;;0.00;0.00;;;;;13.49;79.46;100213.84;5079122;27;47478;-60
2022/11/09 02:26:51;;;;;;;;;0.00;0.00;;;;;13.51;79.32;100211.91;5066287;27;45220;-58
2022/11/09 02:29:24;;;;;;;;;2.00;1.00;;;;;13.49;79.87;100205.84;5058858;28;47077;-58
2022/11/09 02:31:54;;;;;;;;;5.00;2.00;;;;;13.48;79.23;100208.63;5063072;27;45271;-58
2022/11/09 02:34:22;;;;;;;;;3.00;1.00;;;;;13.43;79.40;100208.13;5072489;27;46134;-59
2022/11/09 02:36:47;;;;;;;;;0.00;0.00;;;;;13.41;79.38;100192.22;5057930;27;45492;-57
2022/11/09 02:39:16;;;;;;;;;1.33;0.00;;;;;13.43;79.09;100198.28;5068291;27;46041;-60
2022/11/09 02:41:49;;;;;;;;;2.00;1.00;;;;;13.42;78.91;100204.59;5063515;27;45554;-61
2022/11/09 02:44:16;;;;;;;;;0.00;0.00;;;;;13.41;79.18;100199.34;5056391;28;46394;-63
2022/11/09 02:46:42;;;;;;;;;1.33;1.00;;;;;13.33;78.84;100194.59;5077729;27;45482;-59
2022/11/09 02:49:07;;;;;;;;;2.00;0.00;;;;;13.30;78.90;100202.84;5064419;27;45655;-59
2022/11/09 02:51:32;;;;;;;;;1.00;1.00;;;;;13.26;78.95;100206.66;5078613;27;45667;-60
2022/11/09 02:53:58;;;;;;;;;3.33;1.00;;;;;13.28;79.03;100220.75;5076888;27;45543;-59
2022/11/09 02:56:23;;;;;;;;;2.00;0.00;;;;;13.27;78.83;100216.38;5076840;27;45441;-59
2022/11/09 02:58:49;;;;;;;;;0.00;0.00;;;;;13.21;78.30;100216.84;5067474;27;45440;-58
2022/11/09 03:01:14;;;;;;;;;1.33;0.00;;;;;13.24;79.00;100227.28;5055952;28;45567;-60
2022/11/09 03:03:40;;;;;;;;;1.00;1.00;;;;;13.23;78.71;100241.63;5048985;27;45543;-62
2022/11/09 03:06:05;;;;;;;;;1.00;1.00;;;;;13.16;78.21;100235.84;5066748;27;45428;-61
2022/11/09 03:08:31;;;;;;;;;1.00;1.00;;;;;13.18;78.29;100241.06;5059669;27;45275;-64
2022/11/09 03:10:58;;;;;;;;;0.00;0.00;;;;;13.16;78.40;100240.34;5078409;28;45219;-60
2022/11/09 03:13:24;;;;;;;;;0.00;0.00;;;;;13.09;77.94;100228.38;5068593;27;45733;-62
2022/11/09 03:15:49;;;;;;;;;0.00;0.00;;;;;13.06;78.27;100241.97;5077975;27;45639;-62
2022/11/09 03:18:15;;;;;;;;;0.33;0.00;;;;;13.08;77.94;100240.88;5063137;27;45343;-62
2022/11/09 03:20:40;;;;;;;;;0.00;0.00;;;;;13.05;77.63;100251.78;5079993;27;45500;-59
2022/11/09 03:23:06;;;;;;;;;0.33;0.00;;;;;12.99;77.76;100230.84;5076531;27;46783;-64
2022/11/09 03:25:31;;;;;;;;;0.00;0.00;;;;;13.02;77.83;100235.13;5067154;28;45476;-61
2022/11/09 03:28:01;;;;;;;;;0.00;0.00;;;;;13.03;78.45;100239.53;5061122;27;45430;-59
2022/11/09 03:30:27;;;;;;;;;0.00;0.00;;;;;13.00;77.46;100227.22;5070528;27;45643;-62
2022/11/09 03:33:11;;;;;;;;;0.00;0.00;;;;;12.96;77.72;100231.06;5056722;27;46069;-62
2022/11/09 03:35:37;;;;;;;;;0.00;0.00;;;;;12.89;78.06;100225.34;5058571;28;45454;-58
2022/11/09 03:38:03;;;;;;;;;0.33;0.00;;;;;12.82;77.95;100221.38;5077374;28;45283;-61
2022/11/09 03:40:29;;;;;;;;;0.00;0.00;;;;;12.91;77.72;100242.09;5071561;27;46945;-60
2022/11/09 03:42:56;;;;;;;;;1.00;0.00;;;;;12.90;77.58;100248.41;5062758;27;45288;-59
2022/11/09 03:45:22;;;;;;;;;2.00;0.00;;;;;12.92;78.21;100241.13;5071722;27;45343;-59
2022/11/09 03:47:47;;;;;;;;;2.00;0.00;;;;;12.87;77.43;100239.72;5079745;27;45586;-64
2022/11/09 03:50:14;;;;;;;;;0.00;0.00;;;;;12.90;77.97;100258.22;5065148;27;45510;-62
2022/11/09 03:52:44;;;;;;;;;0.00;0.00;;;;;12.81;77.87;100249.03;5049633;28;46585;-64
2022/11/09 03:55:09;;;;;;;;;1.67;0.00;;;;;12.86;78.35;100260.22;5074404;27;45398;-63
2022/11/09 03:57:35;;;;;;;;;1.00;0.00;;;;;12.81;77.81;100257.03;5057212;27;45364;-60
2022/11/09 04:00:00;;;;;;;;;0.00;0.00;;;;;12.82;77.69;100261.41;5070202;27;45494;-60
2022/11/09 04:02:25;;;;;;;;;0.00;0.00;;;;;12.79;77.91;100258.97;5059451;27;47099;-59
2022/11/09 04:04:51;;;;;;;;;0.00;0.00;;;;;12.78;78.17;100251.94;5068352;27;45381;-60
2022/11/09 04:07:16;;;;;;;;;0.00;0.00;;;;;12.75;77.93;100264.63;5062105;27;45446;-61
2022/11/09 04:09:41;;;;;;;;;0.00;0.00;;;;;12.73;78.11;100259.38;5040711;28;45518;-60
2022/11/09 04:12:07;;;;;;;;;1.33;0.00;;;;;12.66;78.43;100252.78;5076088;28;46075;-63
2022/11/09 04:14:32;;;;;;;;;0.00;0.00;;;;;12.69;78.02;100264.09;5065860;27;45438;-60
2022/11/09 04:16:57;;;;;;;;;0.00;0.00;;;;;12.68;78.09;100269.53;5056625;27;45509;-60
2022/11/09 04:19:23;;;;;;;;;0.00;0.00;;;;;12.67;78.46;100268.69;5056729;27;45655;-59
2022/11/09 04:21:49;;;;;;;;;0.00;0.00;;;;;12.63;78.13;100274.31;5073250;27;45402;-61
2022/11/09 04:24:14;;;;;;;;;0.00;0.00;;;;;12.58;78.35;100280.00;5075957;27;45318;-60
2022/11/09 04:26:39;;;;;;;;;0.00;0.00;;;;;12.59;78.48;100291.50;5072373;27;45485;-60
2022/11/09 04:29:05;;;;;;;;;1.00;0.00;;;;;12.59;78.29;100296.84;5059489;27;45520;-63
2022/11/09 04:31:30;;;;;;;;;0.67;0.00;;;;;12.59;78.25;100300.38;5076253;27;45890;-63
2022/11/09 04:33:56;;;;;;;;;0.00;0.00;;;;;12.55;78.50;100290.88;5074921;27;45478;-59
2022/11/09 04:36:22;;;;;;;;;0.00;0.00;;;;;12.58;78.71;100296.00;5074900;27;45349;-62
2022/11/09 04:38:47;;;;;;;;;0.00;0.00;;;;;12.55;78.70;100303.38;5037535;28;45691;-59
2022/11/09 04:41:13;;;;;;;;;0.33;0.00;;;;;12.51;78.75;100305.41;5064814;28;46194;-65
2022/11/09 04:43:38;;;;;;;;;1.00;0.00;;;;;12.53;78.63;100307.97;5055695;27;45416;-61
2022/11/09 04:46:04;;;;;;;;;1.00;0.00;;;;;12.49;79.14;100301.94;5069908;27;45328;-62
2022/11/09 04:48:30;;;;;;;;;0.00;0.00;;;;;12.53;78.86;100307.97;5047272;27;45466;-60
2022/11/09 04:51:05;;;;;;;;;1.00;0.00;;;;;12.54;78.97;100313.19;5063858;27;45394;-59
2022/11/09 04:53:30;;;;;;;;;0.00;0.00;;;;;12.55;78.72;100308.69;5056171;27;45463;-58
2022/11/09 04:55:56;;;;;;;;;0.00;0.00;;;;;12.52;78.55;100306.25;5061719;27;45477;-58
2022/11/09 04:58:22;;;;;;;;;0.00;0.00;;;;;12.46;78.53;100303.97;5071913;27;45353;-59
2022/11/09 05:00:47;;;;;;;;;0.00;0.00;;;;;12.51;78.58;100312.56;5090653;27;46120;-58
2022/11/09 05:03:12;;;;;;;;;0.00;0.00;;;;;12.51;78.61;100315.22;5069732;27;45524;-60
2022/11/09 05:05:38;;;;;;;;;0.67;0.00;;;;;12.49;78.83;100317.09;5062676;27;45593;-59
2022/11/09 05:08:05;;;;;;;;;0.67;0.33;;;;;12.46;78.64;100312.00;5067796;27;45667;-60
2022/11/09 05:10:30;;;;;;;;;0.00;0.00;;;;;12.43;79.11;100307.72;5066207;27;45386;-60
2022/11/09 05:13:01;;;;;;;;;0.00;0.00;;;;;12.49;78.99;100314.44;5061261;28;45317;-62
2022/11/09 05:15:26;;;;;;;;;2.00;0.33;;;;;12.46;78.73;100312.84;5073401;27;45522;-58
2022/11/09 05:17:52;;;;;;;;;0.33;0.33;;;;;12.40;79.06;100308.78;5068150;27;45331;-59
2022/11/09 05:20:18;;;;;;;;;3.00;0.00;;;;;12.44;78.98;100311.25;5058871;27;46185;-58
2022/11/09 05:25:27;;;;;;;;;0.00;0.00;;;;;12.45;79.30;100320.94;5074666;27;45453;-59
2022/11/09 05:27:53;;;;;;;;;0.00;0.00;;;;;12.44;79.04;100313.91;5067515;27;45478;-59
2022/11/09 05:30:22;;;;;;;;;0.00;0.00;;;;;12.48;78.69;100321.59;5052946;28;45420;-64
2022/11/09 05:32:48;;;;;;;;;0.00;0.00;;;;;12.49;79.07;100325.09;5079837;27;45399;-65
2022/11/09 05:35:14;;;;;;;;;1.33;1.00;;;;;12.47;78.74;100324.38;5061478;28;45354;-62
2022/11/09 05:37:39;;;;;;;;;0.67;0.67;;;;;12.49;79.02;100322.44;5077390;27;45456;-58
2022/11/09 05:40:07;;;;;;;;;1.00;0.00;;;;;12.47;79.09;100325.22;5063520;27;45831;-63
2022/11/09 05:42:32;;;;;;;;;2.33;0.67;;;;;12.43;79.01;100317.53;5078667;27;45452;-59
2022/11/09 05:44:58;;;;;;;;;2.67;0.67;;;;;12.49;79.02;100330.44;5080552;27;45476;-60
2022/11/09 05:47:23;;;;;;;;;1.00;1.00;;;;;12.51;79.22;100325.88;5081202;27;45318;-59
2022/11/09 05:49:48;;;;;;;;;0.00;0.00;;;;;12.54;79.12;100323.00;5060405;27;45414;-61
2022/11/09 05:52:14;;;;;;;;;0.67;0.67;;;;;12.43;79.55;100304.19;5064130;28;45419;-60
2022/11/09 05:54:39;;;;;;;;;1.00;1.00;;;;;12.54;79.84;100325.66;5077678;28;45353;-63
2022/11/09 05:57:04;;;;;;;;;2.00;1.00;;;;;12.52;79.35;100324.91;5077645;28;45596;-62
2022/11/09 05:59:30;;;;;;;;;1.00;1.00;;;;;12.54;79.89;100334.53;5062162;28;46109;-60
2022/11/09 06:01:55;;;;;;;;;0.00;0.00;;;;;12.56;79.86;100345.09;5090145;27;47158;-61
2022/11/09 06:04:20;;;;;;;;;2.00;0.67;;;;;12.58;79.71;100343.16;5099207;27;45314;-63
2022/11/09 06:06:46;;;;;;;;;1.67;1.00;;;;;12.58;79.96;100348.50;5079264;27;45315;-60
2022/11/09 06:09:11;;;;;;;;;3.00;1.00;;;;;12.60;79.70;100349.25;5058626;27;47259;-62
2022/11/09 06:11:36;;;;;;;;;1.00;1.00;;;;;12.58;80.01;100338.69;5076050;27;45605;-59
2022/11/09 06:14:02;;;;;;;;;1.67;0.67;;;;;12.53;80.54;100335.47;5048663;28;45476;-60
2022/11/09 06:16:27;;;;;;;;;1.00;1.00;;;;;12.61;80.37;100341.13;5074929;27;45206;-58
2022/11/09 06:18:54;;;;;;;;;3.00;1.00;;;;;12.62;80.51;100342.84;5061589;27;46191;-62
2022/11/09 06:21:19;;;;;;;;;2.00;1.00;;;;;12.62;80.86;100340.16;5076005;27;45515;-59
2022/11/09 06:23:44;;;;;;;;;1.00;1.00;;;;;12.57;80.72;100338.78;5076621;27;45370;-59
2022/11/09 06:26:10;;;;;;;;;5.67;1.00;;;;;12.61;81.20;100348.28;5079087;27;45899;-61
2022/11/09 06:28:36;;;;;;;;;4.00;1.00;;;;;12.63;81.22;100357.03;5076055;27;46126;-61
2022/11/09 06:31:04;;;;;;;;;1.00;1.00;;;;;12.59;81.16;100351.06;5070461;28;45585;-61
2022/11/09 06:33:31;;;;;;;;;1.00;1.00;;;;;12.63;81.52;100357.03;5068285;27;47277;-61
2022/11/09 06:35:58;;;;;;;;;2.33;1.33;;;;;12.54;81.68;100347.00;5075157;27;45612;-60
2022/11/09 06:38:25;;;;;;;;;2.33;1.00;;;;;12.60;81.55;100365.25;5078967;27;45265;-59
2022/11/09 06:40:52;;;;;;;;;3.67;2.00;;;;;12.64;81.88;100372.09;5070944;27;45232;-59
2022/11/09 06:43:17;;;;;;;;;4.00;3.00;;;;;12.63;81.71;100371.25;5069986;27;45540;-58
2022/11/09 06:45:46;;;;;;;;;1.67;1.67;;;;;12.65;81.55;100380.00;5059277;28;45461;-62
2022/11/09 06:48:11;;;;;;;;;2.67;1.67;;;;;12.64;81.90;100375.63;5079481;27;45450;-58
2022/11/09 06:50:36;;;;;;;;;2.00;2.00;;;;;12.65;81.72;100384.50;5077344;27;45374;-61
2022/11/09 06:53:06;;;;;;;;;0.67;0.00;;;;;12.66;82.16;100383.53;5074778;27;45663;-62
2022/11/09 06:55:33;;;;;;;;;5.00;2.67;;;;;12.65;82.09;100385.34;5069544;27;45429;-60
2022/11/09 06:57:58;;;;;;;;;3.00;1.00;;;;;12.66;82.04;100394.19;5092231;27;45458;-61
2022/11/09 07:00:25;;;;;;;;;4.00;3.00;;;;;12.66;82.10;100387.03;5073418;27;45605;-64
2022/11/09 07:02:51;;;;;;;;;1.00;1.00;;;;;12.67;82.12;100386.09;5077074;27;45425;-64
2022/11/09 07:05:17;;;;;;;;;2.67;1.00;;;;;12.70;82.29;100396.53;5041115;28;45636;-61
2022/11/09 07:07:42;;;;;;;;;3.33;1.33;;;;;12.70;82.38;100393.03;5060160;28;46120;-58
2022/11/09 07:10:08;;;;;;;;;3.00;0.00;;;;;12.72;82.50;100398.25;5071774;28;45441;-57
2022/11/09 07:12:34;;;;;;;;;2.00;2.00;;;;;12.70;82.28;100401.03;5043328;28;45231;-61
2022/11/09 07:15:00;;;;;;;;;2.00;2.00;;;;;12.74;82.45;100413.19;5077094;27;45279;-61
2022/11/09 07:17:25;;;;;;;;;4.33;2.00;;;;;12.72;82.30;100408.91;5080137;27;45229;-63
2022/11/09 07:19:51;;;;;;;;;3.33;1.33;;;;;12.74;82.53;100417.66;5076635;27;45434;-62
2022/11/09 07:22:16;;;;;;;;;4.00;2.00;;;;;12.74;82.12;100423.88;5072527;27;45592;-59
2022/11/09 07:24:42;;;;;;;;;5.33;2.00;;;;;12.80;82.09;100428.81;5059533;28;45369;-61
2022/11/09 07:27:07;;;;;;;;;4.67;3.00;;;;;12.80;82.36;100420.78;5057126;28;45443;-59
2022/11/09 07:29:35;;;;;;;;;2.00;1.00;;;;;12.86;82.13;100428.38;5060312;27;45809;-61
2022/11/09 07:32:01;;;;;;;;;4.33;2.00;;;;;12.89;81.79;100438.88;5081779;27;45443;-61
2022/11/09 07:34:26;;;;;;;;;4.00;2.00;;;;;12.92;81.82;100438.66;5077212;27;45331;-63
2022/11/09 07:36:53;;;;;;;;;3.00;3.00;;;;;12.90;81.61;100429.91;5077236;27;46096;-63
2022/11/09 07:39:18;;;;;;;;;4.00;4.00;;;;;12.94;81.96;100426.03;5059591;27;45376;-60
2022/11/09 07:41:48;;;;;;;;;1.33;1.33;;;;;12.97;81.76;100431.16;5058842;28;45315;-62
2022/11/09 07:44:17;;;;;;;;;2.00;2.00;;;;;13.01;81.50;100431.81;5064970;28;45940;-61
2022/11/09 07:46:46;;;;;;;;;2.00;2.00;;;;;13.04;81.75;100444.09;5076892;28;46042;-59
2022/11/09 07:49:12;;;;;;;;;4.00;2.00;;;;;13.06;81.14;100450.19;5076851;27;45295;-62
2022/11/09 07:51:38;;;;;;;;;2.00;2.00;;;;;13.09;81.42;100449.97;5058758;28;45276;-59
2022/11/09 07:54:04;;;;;;;;;8.00;3.67;;;;;13.15;81.62;100439.75;5077660;27;45656;-63
2022/11/09 07:56:30;;;;;;;;;3.00;1.00;;;;;13.26;81.55;100447.88;5075355;27;46176;-59
2022/11/09 07:58:55;;;;;;;;;2.00;2.00;;;;;13.27;80.75;100443.38;5072184;27;45425;-59
2022/11/09 08:01:20;;;;;;;;;4.33;3.00;;;;;13.33;80.83;100453.66;5098020;27;45413;-66
2022/11/09 08:03:46;;;;;;;;;4.00;3.00;;;;;13.28;80.81;100450.44;5083356;27;45416;-59
2022/11/09 08:06:11;;;;;;;;;5.00;3.00;;;;;13.37;80.64;100451.63;5076493;28;52087;-59
2022/11/09 08:08:36;;;;;;;;;2.00;2.00;;;;;13.38;80.23;100456.84;5076762;28;45338;-59
2022/11/09 08:11:02;;;;;;;;;4.00;2.67;;;;;13.37;80.29;100443.59;5077495;27;45425;-65
2022/11/09 08:13:27;;;;;;;;;5.00;3.67;;;;;13.37;80.77;100449.81;5069198;27;45478;-59
2022/11/09 08:15:53;;;;;;;;;3.00;3.00;;;;;13.32;80.73;100441.28;5088329;27;45560;-64
2022/11/09 08:18:20;;;;;;;;;2.00;2.00;;;;;13.39;80.36;100450.53;5096498;27;45232;-66
2022/11/09 08:20:47;;;;;;;;;3.00;3.00;;;;;13.39;80.75;100458.56;5091070;27;45359;-65
2022/11/09 08:23:14;;;;;;;;;2.00;2.00;;;;;13.44;79.63;100448.44;5076897;28;45383;-67
2022/11/09 08:25:40;;;;;;;;;4.33;2.00;;;;;13.40;80.43;100452.25;5076724;28;46089;-60
2022/11/09 08:28:06;;;;;;;;;2.67;2.00;;;;;13.43;79.50;100464.56;5076357;27;45259;-65
2022/11/09 08:30:32;;;;;;;;;4.00;2.67;;;;;13.42;79.73;100458.38;5075239;28;45327;-61
2022/11/09 08:32:59;;;;;;;;;2.00;2.00;;;;;13.39;79.90;100455.03;5067326;27;45350;-60
2022/11/09 08:35:25;;;;;;;;;2.00;2.00;;;;;13.47;80.03;100472.25;5077487;27;47331;-63
2022/11/09 08:37:52;;;;;;;;;2.00;2.00;;;;;13.48;79.72;100470.44;5072903;27;45502;-58
2022/11/09 08:40:21;;;;;;;;;2.00;2.00;;;;;13.46;80.00;100465.19;5068970;27;45485;-59
2022/11/09 08:42:50;;;;;;;;;6.67;2.00;;;;;13.48;79.50;100484.63;5060571;28;45426;-66
2022/11/09 08:45:15;;;;;;;;;2.00;2.00;;;;;13.55;79.65;100475.25;5073540;27;45579;-60
2022/11/09 08:47:42;;;;;;;;;5.00;3.00;;;;;13.57;79.57;100477.81;5056718;28;45319;-65
2022/11/09 08:50:09;;;;;;;;;4.33;3.00;;;;;13.58;79.38;100475.03;5041224;27;45430;-66
2022/11/09 08:52:35;;;;;;;;;2.33;2.33;;;;;13.60;79.35;100461.56;5046262;28;46075;-65
2022/11/09 08:55:01;;;;;;;;;2.33;2.33;;;;;13.67;79.30;100484.22;5068573;28;46238;-63
2022/11/09 08:57:27;;;;;;;;;2.67;2.67;;;;;13.71;79.02;100484.84;5086871;27;45846;-62
2022/11/09 08:59:52;;;;;;;;;3.67;2.00;;;;;13.76;78.65;100485.38;5064427;27;45384;-61
2022/11/09 09:02:19;;;;;;;;;0.67;0.33;;;;;13.76;78.70;100478.19;5056899;27;45209;-63
2022/11/09 09:04:44;;;;;;;;;2.33;2.33;;;;;13.84;78.13;100491.88;5066207;27;46384;-63
2022/11/09 09:07:11;;;;;;;;;3.00;2.00;;;;;13.86;77.58;100502.47;5071201;27;45441;-64
2022/11/09 09:09:37;;;;;;;;;2.00;2.00;;;;;13.92;77.70;100493.13;5042671;28;45431;-66
2022/11/09 09:12:03;;;;;;;;;3.00;3.00;;;;;13.86;77.02;100475.75;5059266;27;45454;-61
2022/11/09 09:14:28;;;;;;;;;3.00;1.33;;;;;13.93;77.22;100484.16;5074723;27;45500;-65
2022/11/09 09:16:54;;;;;;;;;0.00;0.00;;;;;14.09;77.18;100511.53;5077031;27;45468;-67
2022/11/09 09:19:20;;;;;;;;;1.00;1.00;;;;;14.09;76.46;100516.88;5074315;27;45441;-67
2022/11/09 09:21:46;;;;;;;;;3.67;3.67;;;;;14.11;76.96;100507.78;5073877;27;45721;-61
2022/11/09 09:24:11;;;;;;;;;4.67;3.00;;;;;14.09;76.04;100509.72;5052461;27;45400;-62
2022/11/09 09:26:37;;;;;;;;;3.67;1.00;;;;;14.19;76.33;100512.56;5060608;27;45454;-63
2022/11/09 09:29:02;;;;;;;;;1.00;1.00;;;;;14.28;75.84;100509.22;5055335;28;45702;-63
2022/11/09 09:31:27;;;;;;;;;2.67;2.67;;;;;14.35;75.67;100523.00;5056482;27;45165;-65
2022/11/09 09:33:53;;;;;;;;;1.67;1.00;;;;;14.39;75.10;100530.69;5042071;27;46910;-62
2022/11/09 09:36:24;;;;;;;;;3.00;1.00;;;;;14.43;74.64;100532.16;5065372;27;45465;-61
2022/11/09 09:38:53;;;;;;;;;4.00;2.00;;;;;14.52;75.02;100540.53;5067230;27;45445;-67
2022/11/09 09:41:27;;;;;;;;;1.00;1.00;;;;;14.55;73.96;100540.31;5065797;27;45611;-60
2022/11/09 09:43:58;;;;;;;;;3.33;1.67;;;;;14.58;73.65;100545.44;5075428;27;45379;-63
2022/11/09 09:46:37;;;;;;;;;1.00;1.00;;;;;14.62;73.79;100549.59;5067067;27;45338;-59
2022/11/09 09:49:10;;;;;;;;;1.00;1.00;;;;;14.65;73.22;100544.88;5059036;28;45358;-67
2022/11/09 09:51:44;;;;;;;;;1.00;1.00;;;;;14.72;72.87;100543.47;5062051;28;45532;-68
2022/11/09 09:54:20;;;;;;;;;4.00;1.00;;;;;14.75;72.45;100551.25;5068771;28;46292;-69
2022/11/09 09:56:48;;;;;;;;;1.00;1.00;;;;;14.75;72.58;100548.59;5073388;27;45335;-64
2022/11/09 09:59:23;;;;;;;;;2.33;1.00;;;;;14.75;72.09;100555.78;5078777;28;45228;-61
2022/11/09 10:01:49;;;;;;;;;3.00;2.00;;;;;14.83;72.38;100560.53;5081891;27;45500;-61
2022/11/09 10:04:35;;;;;;;;;1.33;1.00;;;;;14.93;71.76;100566.91;5098831;27;45480;-64
2022/11/09 10:07:16;;;;;;;;;7.00;1.33;;;;;14.98;71.54;100576.34;5092060;27;45379;-63
2022/11/09 10:09:58;;;;;;;;;1.33;1.00;;;;;15.01;71.54;100580.59;5078543;28;45384;-63
2022/11/09 10:12:32;;;;;;;;;3.00;1.33;;;;;15.05;70.46;100580.25;5058281;28;45328;-64
2022/11/09 10:15:05;;;;;;;;;2.33;2.00;;;;;15.18;70.40;100590.91;5072367;28;46381;-63
2022/11/09 10:17:55;;;;;;;;;4.00;2.00;;;;;15.18;69.67;100588.22;5077417;28;45272;-64
2022/11/09 10:20:26;;;;;;;;;2.00;0.33;;;;;15.23;70.00;100591.41;5092458;27;45433;-62
2022/11/09 10:23:11;;;;;;;;;4.00;1.00;;;;;15.24;69.09;100590.47;5098572;27;45433;-65
2022/11/09 10:25:37;;;;;;;;;2.00;2.00;;;;;15.34;69.22;100599.47;5094798;27;45374;-60
2022/11/09 10:28:10;;;;;;;;;1.33;1.33;;;;;15.43;68.24;100607.81;5048997;28;45517;-60
2022/11/09 10:30:36;;;;;;;;;2.67;2.00;;;;;15.35;67.50;100595.81;5047943;28;45366;-65
2022/11/09 10:33:20;;;;;;;;;0.00;0.00;;;;;15.40;68.14;100606.22;5078107;28;45603;-64
2022/11/09 10:36:04;;;;;;;;;2.67;2.00;;;;;15.44;68.06;100614.88;5077519;28;45445;-69
2022/11/09 10:38:42;;;;;;;;;3.00;0.67;;;;;15.50;68.28;100615.28;5059482;28;45532;-69
2022/11/09 10:41:33;;;;;;;;;3.00;2.00;;;;;15.57;68.46;100615.66;5067076;27;45545;-69
2022/11/09 10:43:59;;;;;;;;;1.67;1.00;;;;;15.62;67.99;100613.50;5044168;28;45627;-63
2022/11/09 10:46:24;;;;;;;;;4.00;1.00;;;;;15.66;67.98;100609.63;5079712;27;45540;-66
2022/11/09 10:48:52;;;;;;;;;2.67;1.00;;;;;15.65;67.37;100615.97;5080627;27;45718;-68
2022/11/09 10:51:37;;;;;;;;;3.67;2.00;;;;;15.78;66.21;100619.41;5071093;28;45421;-65
2022/11/09 10:54:22;;;;;;;;;1.33;1.33;;;;;15.84;66.86;100610.88;5070260;27;45457;-65
2022/11/09 10:57:07;;;;;;;;;1.00;1.00;;;;;16.07;66.47;100632.38;5073118;27;45585;-66
2022/11/09 10:59:43;;;;;;;;;3.00;2.00;;;;;16.52;65.13;100620.66;5078229;28;45496;-66
2022/11/09 11:02:37;;;;;;;;;1.00;1.00;;;;;16.62;64.88;100625.28;5067588;28;45543;-67
2022/11/09 11:05:06;;;;;;;;;2.00;2.00;;;;;16.53;63.18;100626.88;5068141;28;45465;-61
2022/11/09 11:07:33;;;;;;;;;3.67;2.00;;;;;16.45;64.67;100635.56;5072842;27;45668;-66
2022/11/09 11:10:13;;;;;;;;;1.00;1.00;;;;;16.38;65.17;100628.09;5077462;27;45243;-62
2022/11/09 11:12:40;;;;;;;;;0.33;0.33;;;;;16.31;64.52;100619.72;5077964;28;45321;-67
2022/11/09 11:15:28;;;;;;;;;2.33;1.00;;;;;16.34;64.47;100632.88;5078030;28;45307;-67
2022/11/09 11:18:01;;;;;;;;;3.33;2.00;;;;;16.35;65.23;100623.84;5076332;27;45477;-67
2022/11/09 11:20:32;;;;;;;;;1.00;1.00;;;;;16.31;62.87;100618.84;5078774;27;45473;-66
2022/11/09 11:23:21;;;;;;;;;0.00;0.00;;;;;16.41;63.14;100627.88;5073149;27;45327;-61
2022/11/09 11:25:53;;;;;;;;;1.00;1.00;;;;;16.70;62.03;100617.50;5074887;27;45493;-66
2022/11/09 11:28:58;;;;;;;;;1.00;1.00;;;;;16.94;61.80;100617.34;5081788;27;45448;-65
2022/11/09 11:31:23;;;;;;;;;2.00;1.67;;;;;17.19;61.33;100621.53;5077547;28;45334;-61